sensor_id;sensor_type;location;lat;lon;timestamp;P1;durP1;ratioP1;P2;durP2;ratioP2
21677;SDS011;11000;50.360;7.582;2023-07-24T00:01:49;2.90;;;1.70;;
21677;SDS011;11000;50.360;7.582;2023-07-24T00:04:10;2.50;;;1.87;;
21677;SDS011;11000;50.360;7.582;2023-07-24T00:06:30;4.80;;;1.80;;
21677;SDS011;11000;50.360;7.582;2023-07-24T00:08:51;2.40;;;1.70;;
21677;SDS011;11000;50.360;7.582;2023-07-24T00:11:11;3.17;;;1.93;;
21677;SDS011;11000;50.360;7.582;2023-07-24T00:13:32;2.43;;;2.10;;
21677;SDS011;11000;50.360;7.582;2023-07-24T00:15:52;1.70;;;1.60;;
21677;SDS011;11000;50.360;7.582;2023-07-24T00:18:13;3.40;;;1.80;;
21677;SDS011;11000;50.360;7.582;2023-07-24T00:20:33;3.40;;;2.03;;
21677;SDS011;11000;50.360;7.582;2023-07-24T00:22:54;2.10;;;1.77;;
21677;SDS011;11000;50.360;7.582;2023-07-24T00:25:14;2.43;;;2.17;;
21677;SDS011;11000;50.360;7.582;2023-07-24T00:27:35;3.53;;;1.90;;
21677;SDS011;11000;50.360;7.582;2023-07-24T00:29:55;4.27;;;1.80;;
21677;SDS011;11000;50.360;7.582;2023-07-24T00:32:16;3.37;;;1.90;;
21677;SDS011;11000;50.360;7.582;2023-07-24T00:34:36;1.90;;;1.80;;
21677;SDS011;11000;50.360;7.582;2023-07-24T00:36:57;2.10;;;1.90;;
21677;SDS011;11000;50.360;7.582;2023-07-24T00:39:18;2.97;;;1.80;;
21677;SDS011;11000;50.360;7.582;2023-07-24T00:41:38;2.43;;;1.63;;
21677;SDS011;11000;50.360;7.582;2023-07-24T00:43:59;1.70;;;1.60;;
21677;SDS011;11000;50.360;7.582;2023-07-24T00:46:19;2.27;;;2.03;;
21677;SDS011;11000;50.360;7.582;2023-07-24T00:48:40;1.87;;;1.77;;
21677;SDS011;11000;50.360;7.582;2023-07-24T00:51:01;2.20;;;2.00;;
21677;SDS011;11000;50.360;7.582;2023-07-24T00:53:22;2.00;;;1.90;;
21677;SDS011;11000;50.360;7.582;2023-07-24T00:55:42;2.70;;;1.73;;
21677;SDS011;11000;50.360;7.582;2023-07-24T00:58:03;3.13;;;2.10;;
21677;SDS011;11000;50.360;7.582;2023-07-24T01:00:24;2.13;;;1.90;;
21677;SDS011;11000;50.360;7.582;2023-07-24T01:02:45;2.77;;;2.00;;
21677;SDS011;11000;50.360;7.582;2023-07-24T01:05:06;2.47;;;1.90;;
21677;SDS011;11000;50.360;7.582;2023-07-24T01:07:27;2.13;;;1.93;;
21677;SDS011;11000;50.360;7.582;2023-07-24T01:09:49;1.67;;;1.57;;
21677;SDS011;11000;50.360;7.582;2023-07-24T01:12:13;2.20;;;2.00;;
21677;SDS011;11000;50.360;7.582;2023-07-24T01:14:45;2.90;;;2.00;;
21677;SDS011;11000;50.360;7.582;2023-07-24T01:17:09;2.30;;;2.10;;
21677;SDS011;11000;50.360;7.582;2023-07-24T01:19:47;2.30;;;2.10;;
21677;SDS011;11000;50.360;7.582;2023-07-24T01:22:14;2.00;;;1.80;;
21677;SDS011;11000;50.360;7.582;2023-07-24T01:24:55;2.77;;;2.00;;
21677;SDS011;11000;50.360;7.582;2023-07-24T01:27:26;2.10;;;1.93;;
21677;SDS011;11000;50.360;7.582;2023-07-24T01:29:47;3.40;;;2.00;;
21677;SDS011;11000;50.360;7.582;2023-07-24T01:32:07;3.87;;;2.30;;
21677;SDS011;11000;50.360;7.582;2023-07-24T01:34:28;3.13;;;2.17;;
21677;SDS011;11000;50.360;7.582;2023-07-24T01:36:48;2.83;;;2.20;;
21677;SDS011;11000;50.360;7.582;2023-07-24T01:39:10;3.10;;;2.13;;
21677;SDS011;11000;50.360;7.582;2023-07-24T01:41:31;2.73;;;1.80;;
21677;SDS011;11000;50.360;7.582;2023-07-24T01:43:52;2.57;;;2.10;;
21677;SDS011;11000;50.360;7.582;2023-07-24T01:46:12;2.07;;;1.97;;
21677;SDS011;11000;50.360;7.582;2023-07-24T01:48:32;2.30;;;2.10;;
21677;SDS011;11000;50.360;7.582;2023-07-24T01:50:53;2.60;;;1.97;;
21677;SDS011;11000;50.360;7.582;2023-07-24T01:53:13;2.97;;;2.60;;
21677;SDS011;11000;50.360;7.582;2023-07-24T01:55:34;2.80;;;2.37;;
21677;SDS011;11000;50.360;7.582;2023-07-24T01:57:54;5.63;;;3.63;;
21677;SDS011;11000;50.360;7.582;2023-07-24T02:00:15;3.60;;;3.10;;
21677;SDS011;11000;50.360;7.582;2023-07-24T02:02:36;3.93;;;2.60;;
21677;SDS011;11000;50.360;7.582;2023-07-24T02:04:56;2.30;;;2.10;;
21677;SDS011;11000;50.360;7.582;2023-07-24T02:07:17;2.93;;;1.97;;
21677;SDS011;11000;50.360;7.582;2023-07-24T02:09:37;2.10;;;1.90;;
21677;SDS011;11000;50.360;7.582;2023-07-24T02:11:58;2.83;;;1.97;;
21677;SDS011;11000;50.360;7.582;2023-07-24T02:14:18;3.30;;;2.30;;
21677;SDS011;11000;50.360;7.582;2023-07-24T02:16:40;2.33;;;2.13;;
21677;SDS011;11000;50.360;7.582;2023-07-24T02:19:01;2.17;;;1.97;;
21677;SDS011;11000;50.360;7.582;2023-07-24T02:21:21;3.23;;;2.07;;
21677;SDS011;11000;50.360;7.582;2023-07-24T02:23:42;2.40;;;2.17;;
21677;SDS011;11000;50.360;7.582;2023-07-24T02:26:02;3.33;;;2.30;;
21677;SDS011;11000;50.360;7.582;2023-07-24T02:28:23;2.90;;;1.93;;
21677;SDS011;11000;50.360;7.582;2023-07-24T02:30:43;2.03;;;1.93;;
21677;SDS011;11000;50.360;7.582;2023-07-24T02:33:06;2.30;;;2.10;;
21677;SDS011;11000;50.360;7.582;2023-07-24T02:35:26;2.23;;;2.00;;
21677;SDS011;11000;50.360;7.582;2023-07-24T02:37:47;3.07;;;2.30;;
21677;SDS011;11000;50.360;7.582;2023-07-24T02:40:07;4.57;;;2.63;;
21677;SDS011;11000;50.360;7.582;2023-07-24T02:42:28;2.67;;;2.20;;
21677;SDS011;11000;50.360;7.582;2023-07-24T02:44:49;3.90;;;2.17;;
21677;SDS011;11000;50.360;7.582;2023-07-24T02:47:09;3.10;;;1.93;;
21677;SDS011;11000;50.360;7.582;2023-07-24T02:49:30;2.67;;;2.47;;
21677;SDS011;11000;50.360;7.582;2023-07-24T02:51:50;3.33;;;2.53;;
21677;SDS011;11000;50.360;7.582;2023-07-24T02:54:11;3.43;;;2.67;;
21677;SDS011;11000;50.360;7.582;2023-07-24T02:56:31;5.07;;;2.30;;
21677;SDS011;11000;50.360;7.582;2023-07-24T02:58:52;2.43;;;2.23;;
21677;SDS011;11000;50.360;7.582;2023-07-24T03:01:12;4.27;;;2.30;;
21677;SDS011;11000;50.360;7.582;2023-07-24T03:03:34;5.90;;;2.90;;
21677;SDS011;11000;50.360;7.582;2023-07-24T03:05:54;2.67;;;2.23;;
21677;SDS011;11000;50.360;7.582;2023-07-24T03:08:15;3.37;;;2.10;;
21677;SDS011;11000;50.360;7.582;2023-07-24T03:10:39;2.50;;;2.30;;
21677;SDS011;11000;50.360;7.582;2023-07-24T03:13:01;5.37;;;2.80;;
21677;SDS011;11000;50.360;7.582;2023-07-24T03:15:21;2.70;;;2.50;;
21677;SDS011;11000;50.360;7.582;2023-07-24T03:17:42;3.27;;;2.50;;
21677;SDS011;11000;50.360;7.582;2023-07-24T03:20:36;2.50;;;2.27;;
21677;SDS011;11000;50.360;7.582;2023-07-24T03:22:49;3.10;;;2.50;;
21677;SDS011;11000;50.360;7.582;2023-07-24T03:25:10;2.93;;;2.40;;
21677;SDS011;11000;50.360;7.582;2023-07-24T03:27:30;2.63;;;2.37;;
21677;SDS011;11000;50.360;7.582;2023-07-24T03:29:51;2.63;;;2.37;;
21677;SDS011;11000;50.360;7.582;2023-07-24T03:32:11;3.40;;;2.50;;
21677;SDS011;11000;50.360;7.582;2023-07-24T03:34:32;2.83;;;2.50;;
21677;SDS011;11000;50.360;7.582;2023-07-24T03:36:52;3.13;;;2.60;;
21677;SDS011;11000;50.360;7.582;2023-07-24T03:39:13;3.50;;;2.50;;
21677;SDS011;11000;50.360;7.582;2023-07-24T03:41:33;3.70;;;2.30;;
21677;SDS011;11000;50.360;7.582;2023-07-24T03:43:54;3.07;;;2.53;;
21677;SDS011;11000;50.360;7.582;2023-07-24T03:46:14;2.67;;;2.47;;
21677;SDS011;11000;50.360;7.582;2023-07-24T03:48:35;2.43;;;2.17;;
21677;SDS011;11000;50.360;7.582;2023-07-24T03:50:59;2.77;;;2.43;;
21677;SDS011;11000;50.360;7.582;2023-07-24T03:53:20;2.30;;;2.07;;
21677;SDS011;11000;50.360;7.582;2023-07-24T03:55:40;2.70;;;2.30;;
21677;SDS011;11000;50.360;7.582;2023-07-24T03:58:01;3.30;;;2.50;;
21677;SDS011;11000;50.360;7.582;2023-07-24T04:00:21;2.93;;;2.30;;
21677;SDS011;11000;50.360;7.582;2023-07-24T04:02:42;2.60;;;2.40;;
21677;SDS011;11000;50.360;7.582;2023-07-24T04:05:02;2.67;;;2.47;;
21677;SDS011;11000;50.360;7.582;2023-07-24T04:07:23;2.83;;;2.50;;
21677;SDS011;11000;50.360;7.582;2023-07-24T04:09:44;4.10;;;2.50;;
21677;SDS011;11000;50.360;7.582;2023-07-24T04:12:04;2.90;;;2.20;;
21677;SDS011;11000;50.360;7.582;2023-07-24T04:14:25;3.33;;;2.93;;
21677;SDS011;11000;50.360;7.582;2023-07-24T04:16:45;2.63;;;2.43;;
21677;SDS011;11000;50.360;7.582;2023-07-24T04:19:06;2.70;;;2.50;;
21677;SDS011;11000;50.360;7.582;2023-07-24T04:21:27;2.80;;;2.37;;
21677;SDS011;11000;50.360;7.582;2023-07-24T04:23:50;4.33;;;2.93;;
21677;SDS011;11000;50.360;7.582;2023-07-24T04:26:16;4.60;;;2.63;;
21677;SDS011;11000;50.360;7.582;2023-07-24T04:28:37;3.10;;;2.67;;
21677;SDS011;11000;50.360;7.582;2023-07-24T04:31:01;3.37;;;2.70;;
21677;SDS011;11000;50.360;7.582;2023-07-24T04:33:21;3.70;;;2.40;;
21677;SDS011;11000;50.360;7.582;2023-07-24T04:35:47;3.43;;;2.63;;
21677;SDS011;11000;50.360;7.582;2023-07-24T04:38:09;3.73;;;2.40;;
21677;SDS011;11000;50.360;7.582;2023-07-24T04:40:29;3.33;;;2.90;;
21677;SDS011;11000;50.360;7.582;2023-07-24T04:42:50;4.10;;;2.57;;
21677;SDS011;11000;50.360;7.582;2023-07-24T04:45:10;4.90;;;3.10;;
21677;SDS011;11000;50.360;7.582;2023-07-24T04:47:30;4.70;;;2.90;;
21677;SDS011;11000;50.360;7.582;2023-07-24T04:49:51;3.87;;;3.13;;
21677;SDS011;11000;50.360;7.582;2023-07-24T04:52:12;3.87;;;2.70;;
21677;SDS011;11000;50.360;7.582;2023-07-24T04:54:32;3.73;;;2.63;;
21677;SDS011;11000;50.360;7.582;2023-07-24T04:56:53;5.20;;;3.30;;
21677;SDS011;11000;50.360;7.582;2023-07-24T04:59:13;3.50;;;3.10;;
21677;SDS011;11000;50.360;7.582;2023-07-24T05:01:44;3.20;;;2.57;;
21677;SDS011;11000;50.360;7.582;2023-07-24T05:04:04;3.73;;;3.13;;
21677;SDS011;11000;50.360;7.582;2023-07-24T05:06:25;4.37;;;3.13;;
21677;SDS011;11000;50.360;7.582;2023-07-24T05:08:46;3.80;;;2.90;;
21677;SDS011;11000;50.360;7.582;2023-07-24T05:11:07;3.67;;;2.90;;
21677;SDS011;11000;50.360;7.582;2023-07-24T05:13:27;5.47;;;3.57;;
21677;SDS011;11000;50.360;7.582;2023-07-24T05:15:48;3.77;;;3.17;;
21677;SDS011;11000;50.360;7.582;2023-07-24T05:18:08;3.87;;;2.80;;
21677;SDS011;11000;50.360;7.582;2023-07-24T05:20:29;4.57;;;3.07;;
21677;SDS011;11000;50.360;7.582;2023-07-24T05:22:50;4.87;;;3.20;;
21677;SDS011;11000;50.360;7.582;2023-07-24T05:25:10;5.23;;;3.27;;
21677;SDS011;11000;50.360;7.582;2023-07-24T05:27:31;5.47;;;3.50;;
21677;SDS011;11000;50.360;7.582;2023-07-24T05:29:52;4.30;;;2.87;;
21677;SDS011;11000;50.360;7.582;2023-07-24T05:32:12;3.57;;;3.27;;
21677;SDS011;11000;50.360;7.582;2023-07-24T05:34:33;4.90;;;3.07;;
21677;SDS011;11000;50.360;7.582;2023-07-24T05:36:53;4.07;;;3.30;;
21677;SDS011;11000;50.360;7.582;2023-07-24T05:39:14;4.60;;;3.20;;
21677;SDS011;11000;50.360;7.582;2023-07-24T05:41:34;4.43;;;3.20;;
21677;SDS011;11000;50.360;7.582;2023-07-24T05:43:56;3.57;;;3.13;;
21677;SDS011;11000;50.360;7.582;2023-07-24T05:46:16;5.37;;;3.67;;
21677;SDS011;11000;50.360;7.582;2023-07-24T05:48:37;4.73;;;3.00;;
21677;SDS011;11000;50.360;7.582;2023-07-24T05:50:57;4.70;;;3.23;;
21677;SDS011;11000;50.360;7.582;2023-07-24T05:53:18;6.03;;;3.30;;
21677;SDS011;11000;50.360;7.582;2023-07-24T05:55:38;5.23;;;3.60;;
21677;SDS011;11000;50.360;7.582;2023-07-24T05:57:59;5.23;;;3.60;;
21677;SDS011;11000;50.360;7.582;2023-07-24T06:00:19;3.57;;;3.10;;
21677;SDS011;11000;50.360;7.582;2023-07-24T06:02:40;6.03;;;3.50;;
21677;SDS011;11000;50.360;7.582;2023-07-24T06:05:00;5.03;;;3.17;;
21677;SDS011;11000;50.360;7.582;2023-07-24T06:07:21;4.63;;;3.50;;
21677;SDS011;11000;50.360;7.582;2023-07-24T06:09:41;5.20;;;3.57;;
21677;SDS011;11000;50.360;7.582;2023-07-24T06:12:02;4.27;;;3.33;;
21677;SDS011;11000;50.360;7.582;2023-07-24T06:14:23;4.77;;;3.90;;
21677;SDS011;11000;50.360;7.582;2023-07-24T06:16:43;5.47;;;4.10;;
21677;SDS011;11000;50.360;7.582;2023-07-24T06:19:04;3.97;;;3.57;;
21677;SDS011;11000;50.360;7.582;2023-07-24T06:21:24;7.67;;;3.67;;
21677;SDS011;11000;50.360;7.582;2023-07-24T06:23:45;4.57;;;3.30;;
21677;SDS011;11000;50.360;7.582;2023-07-24T06:26:05;5.50;;;3.47;;
21677;SDS011;11000;50.360;7.582;2023-07-24T06:28:26;7.27;;;4.33;;
21677;SDS011;11000;50.360;7.582;2023-07-24T06:30:51;6.53;;;3.80;;
21677;SDS011;11000;50.360;7.582;2023-07-24T06:33:13;4.33;;;3.40;;
21677;SDS011;11000;50.360;7.582;2023-07-24T06:35:34;5.07;;;3.90;;
21677;SDS011;11000;50.360;7.582;2023-07-24T06:37:55;5.97;;;3.87;;
21677;SDS011;11000;50.360;7.582;2023-07-24T06:40:16;6.37;;;3.60;;
21677;SDS011;11000;50.360;7.582;2023-07-24T06:42:36;3.97;;;3.53;;
21677;SDS011;11000;50.360;7.582;2023-07-24T06:44:57;5.97;;;3.40;;
21677;SDS011;11000;50.360;7.582;2023-07-24T06:47:17;5.33;;;4.13;;
21677;SDS011;11000;50.360;7.582;2023-07-24T06:49:38;5.77;;;4.00;;
21677;SDS011;11000;50.360;7.582;2023-07-24T06:51:58;4.57;;;3.60;;
21677;SDS011;11000;50.360;7.582;2023-07-24T06:54:18;5.03;;;3.93;;
21677;SDS011;11000;50.360;7.582;2023-07-24T06:56:39;4.60;;;3.97;;
21677;SDS011;11000;50.360;7.582;2023-07-24T06:58:59;5.50;;;4.00;;
21677;SDS011;11000;50.360;7.582;2023-07-24T07:01:20;5.10;;;3.70;;
21677;SDS011;11000;50.360;7.582;2023-07-24T07:03:41;4.37;;;3.40;;
21677;SDS011;11000;50.360;7.582;2023-07-24T07:06:01;4.83;;;3.43;;
21677;SDS011;11000;50.360;7.582;2023-07-24T07:08:22;5.13;;;3.97;;
21677;SDS011;11000;50.360;7.582;2023-07-24T07:10:43;6.37;;;3.60;;
21677;SDS011;11000;50.360;7.582;2023-07-24T07:13:03;5.27;;;4.23;;
21677;SDS011;11000;50.360;7.582;2023-07-24T07:15:24;6.33;;;4.10;;
21677;SDS011;11000;50.360;7.582;2023-07-24T07:17:45;5.07;;;3.80;;
21677;SDS011;11000;50.360;7.582;2023-07-24T07:20:05;5.63;;;3.53;;
21677;SDS011;11000;50.360;7.582;2023-07-24T07:22:26;7.20;;;3.87;;
21677;SDS011;11000;50.360;7.582;2023-07-24T07:24:47;6.73;;;3.90;;
21677;SDS011;11000;50.360;7.582;2023-07-24T07:27:07;5.00;;;4.07;;
21677;SDS011;11000;50.360;7.582;2023-07-24T07:29:28;8.00;;;4.27;;
21677;SDS011;11000;50.360;7.582;2023-07-24T07:31:48;6.53;;;3.93;;
21677;SDS011;11000;50.360;7.582;2023-07-24T07:34:09;5.90;;;3.93;;
21677;SDS011;11000;50.360;7.582;2023-07-24T07:36:29;4.20;;;3.77;;
21677;SDS011;11000;50.360;7.582;2023-07-24T07:38:50;6.40;;;3.67;;
21677;SDS011;11000;50.360;7.582;2023-07-24T07:41:10;4.30;;;3.70;;
21677;SDS011;11000;50.360;7.582;2023-07-24T07:43:31;4.70;;;4.20;;
21677;SDS011;11000;50.360;7.582;2023-07-24T07:45:51;4.40;;;3.90;;
21677;SDS011;11000;50.360;7.582;2023-07-24T07:48:12;4.70;;;4.13;;
21677;SDS011;11000;50.360;7.582;2023-07-24T07:50:32;4.37;;;3.97;;
21677;SDS011;11000;50.360;7.582;2023-07-24T07:52:53;7.50;;;3.60;;
21677;SDS011;11000;50.360;7.582;2023-07-24T07:55:13;4.13;;;3.70;;
21677;SDS011;11000;50.360;7.582;2023-07-24T07:57:34;5.07;;;3.70;;
21677;SDS011;11000;50.360;7.582;2023-07-24T07:59:58;6.60;;;4.30;;
21677;SDS011;11000;50.360;7.582;2023-07-24T08:02:19;7.53;;;3.80;;
21677;SDS011;11000;50.360;7.582;2023-07-24T08:04:39;4.50;;;3.73;;
21677;SDS011;11000;50.360;7.582;2023-07-24T08:07:00;5.17;;;3.70;;
21677;SDS011;11000;50.360;7.582;2023-07-24T08:09:20;4.10;;;3.60;;
21677;SDS011;11000;50.360;7.582;2023-07-24T08:11:41;4.00;;;3.53;;
21677;SDS011;11000;50.360;7.582;2023-07-24T08:14:02;4.87;;;3.80;;
21677;SDS011;11000;50.360;7.582;2023-07-24T08:16:22;6.40;;;3.87;;
21677;SDS011;11000;50.360;7.582;2023-07-24T08:18:43;6.00;;;3.90;;
21677;SDS011;11000;50.360;7.582;2023-07-24T08:21:10;3.70;;;3.30;;
21677;SDS011;11000;50.360;7.582;2023-07-24T08:23:31;5.37;;;3.50;;
21677;SDS011;11000;50.360;7.582;2023-07-24T08:25:52;5.87;;;3.83;;
21677;SDS011;11000;50.360;7.582;2023-07-24T08:28:16;5.83;;;3.63;;
21677;SDS011;11000;50.360;7.582;2023-07-24T08:30:36;4.30;;;3.50;;
21677;SDS011;11000;50.360;7.582;2023-07-24T08:32:57;4.73;;;3.37;;
21677;SDS011;11000;50.360;7.582;2023-07-24T08:35:17;5.00;;;3.37;;
21677;SDS011;11000;50.360;7.582;2023-07-24T08:37:38;4.53;;;3.50;;
21677;SDS011;11000;50.360;7.582;2023-07-24T08:40:02;5.03;;;3.50;;
21677;SDS011;11000;50.360;7.582;2023-07-24T08:42:23;4.93;;;3.53;;
21677;SDS011;11000;50.360;7.582;2023-07-24T08:44:44;4.70;;;3.50;;
21677;SDS011;11000;50.360;7.582;2023-07-24T08:47:06;3.80;;;3.37;;
21677;SDS011;11000;50.360;7.582;2023-07-24T08:49:30;4.23;;;3.40;;
21677;SDS011;11000;50.360;7.582;2023-07-24T08:51:53;4.10;;;3.57;;
21677;SDS011;11000;50.360;7.582;2023-07-24T08:54:14;4.63;;;3.30;;
21677;SDS011;11000;50.360;7.582;2023-07-24T08:56:38;4.30;;;3.27;;
21677;SDS011;11000;50.360;7.582;2023-07-24T08:59:07;3.53;;;3.23;;
21677;SDS011;11000;50.360;7.582;2023-07-24T09:01:27;4.07;;;3.17;;
21677;SDS011;11000;50.360;7.582;2023-07-24T09:03:48;3.87;;;3.57;;
21677;SDS011;11000;50.360;7.582;2023-07-24T09:06:08;3.57;;;3.20;;
21677;SDS011;11000;50.360;7.582;2023-07-24T09:08:29;4.03;;;3.00;;
21677;SDS011;11000;50.360;7.582;2023-07-24T09:10:51;3.60;;;3.17;;
21677;SDS011;11000;50.360;7.582;2023-07-24T09:13:14;5.13;;;3.23;;
21677;SDS011;11000;50.360;7.582;2023-07-24T09:15:41;5.23;;;2.97;;
21677;SDS011;11000;50.360;7.582;2023-07-24T09:18:02;3.60;;;3.20;;
21677;SDS011;11000;50.360;7.582;2023-07-24T09:20:23;4.80;;;3.23;;
21677;SDS011;11000;50.360;7.582;2023-07-24T09:22:48;3.60;;;3.00;;
21677;SDS011;11000;50.360;7.582;2023-07-24T09:25:13;3.43;;;3.13;;
21677;SDS011;11000;50.360;7.582;2023-07-24T09:27:33;4.07;;;3.20;;
21677;SDS011;11000;50.360;7.582;2023-07-24T09:29:57;3.67;;;2.83;;
21677;SDS011;11000;50.360;7.582;2023-07-24T09:34:42;5.13;;;3.07;;
21677;SDS011;11000;50.360;7.582;2023-07-24T09:37:02;5.87;;;3.20;;
21677;SDS011;11000;50.360;7.582;2023-07-24T09:39:24;3.70;;;3.13;;
21677;SDS011;11000;50.360;7.582;2023-07-24T09:41:45;4.53;;;2.80;;
21677;SDS011;11000;50.360;7.582;2023-07-24T09:44:11;2.97;;;2.77;;
21677;SDS011;11000;50.360;7.582;2023-07-24T09:46:32;3.60;;;3.17;;
21677;SDS011;11000;50.360;7.582;2023-07-24T09:48:53;3.27;;;2.97;;
21677;SDS011;11000;50.360;7.582;2023-07-24T09:51:18;4.50;;;2.80;;
21677;SDS011;11000;50.360;7.582;2023-07-24T09:53:40;4.00;;;3.10;;
21677;SDS011;11000;50.360;7.582;2023-07-24T09:56:08;4.40;;;3.20;;
21677;SDS011;11000;50.360;7.582;2023-07-24T09:58:30;4.17;;;3.10;;
21677;SDS011;11000;50.360;7.582;2023-07-24T10:00:53;3.77;;;3.00;;
21677;SDS011;11000;50.360;7.582;2023-07-24T10:03:14;3.90;;;3.10;;
21677;SDS011;11000;50.360;7.582;2023-07-24T10:05:35;4.73;;;3.37;;
21677;SDS011;11000;50.360;7.582;2023-07-24T10:07:56;5.47;;;3.50;;
21677;SDS011;11000;50.360;7.582;2023-07-24T10:10:17;4.10;;;3.10;;
21677;SDS011;11000;50.360;7.582;2023-07-24T10:12:38;3.90;;;3.50;;
21677;SDS011;11000;50.360;7.582;2023-07-24T10:14:59;4.93;;;3.43;;
21677;SDS011;11000;50.360;7.582;2023-07-24T10:17:33;4.90;;;3.63;;
21677;SDS011;11000;50.360;7.582;2023-07-24T10:20:03;3.83;;;3.20;;
21677;SDS011;11000;50.360;7.582;2023-07-24T10:22:30;5.67;;;3.60;;
21677;SDS011;11000;50.360;7.582;2023-07-24T10:24:51;4.53;;;3.80;;
21677;SDS011;11000;50.360;7.582;2023-07-24T10:27:15;4.37;;;3.10;;
21677;SDS011;11000;50.360;7.582;2023-07-24T10:29:36;5.40;;;2.97;;
21677;SDS011;11000;50.360;7.582;2023-07-24T10:31:57;4.20;;;3.20;;
21677;SDS011;11000;50.360;7.582;2023-07-24T10:34:17;4.57;;;3.50;;
21677;SDS011;11000;50.360;7.582;2023-07-24T10:36:38;4.07;;;3.17;;
21677;SDS011;11000;50.360;7.582;2023-07-24T10:38:59;4.27;;;3.03;;
21677;SDS011;11000;50.360;7.582;2023-07-24T10:41:21;3.80;;;3.37;;
21677;SDS011;11000;50.360;7.582;2023-07-24T10:43:45;5.07;;;3.70;;
21677;SDS011;11000;50.360;7.582;2023-07-24T10:46:07;5.20;;;3.60;;
21677;SDS011;11000;50.360;7.582;2023-07-24T10:48:28;4.43;;;3.63;;
21677;SDS011;11000;50.360;7.582;2023-07-24T10:50:49;5.17;;;3.83;;
21677;SDS011;11000;50.360;7.582;2023-07-24T10:53:13;4.43;;;3.60;;
21677;SDS011;11000;50.360;7.582;2023-07-24T10:55:35;4.77;;;3.80;;
21677;SDS011;11000;50.360;7.582;2023-07-24T10:57:56;5.40;;;3.60;;
21677;SDS011;11000;50.360;7.582;2023-07-24T11:00:17;5.43;;;3.37;;
21677;SDS011;11000;50.360;7.582;2023-07-24T11:02:37;4.20;;;3.80;;
21677;SDS011;11000;50.360;7.582;2023-07-24T11:05:01;5.33;;;3.93;;
21677;SDS011;11000;50.360;7.582;2023-07-24T11:07:21;4.20;;;3.80;;
21677;SDS011;11000;50.360;7.582;2023-07-24T11:09:43;5.87;;;4.43;;
21677;SDS011;11000;50.360;7.582;2023-07-24T11:12:10;6.30;;;4.10;;
21677;SDS011;11000;50.360;7.582;2023-07-24T11:14:34;7.77;;;4.60;;
21677;SDS011;11000;50.360;7.582;2023-07-24T11:16:55;6.67;;;4.07;;
21677;SDS011;11000;50.360;7.582;2023-07-24T11:19:22;5.17;;;4.03;;
21677;SDS011;11000;50.360;7.582;2023-07-24T11:21:44;4.10;;;3.67;;
21677;SDS011;11000;50.360;7.582;2023-07-24T11:24:06;4.07;;;3.50;;
21677;SDS011;11000;50.360;7.582;2023-07-24T11:26:29;4.70;;;3.83;;
21677;SDS011;11000;50.360;7.582;2023-07-24T11:28:50;5.67;;;4.30;;
21677;SDS011;11000;50.360;7.582;2023-07-24T11:31:11;5.60;;;4.40;;
21677;SDS011;11000;50.360;7.582;2023-07-24T11:33:31;5.43;;;4.00;;
21677;SDS011;11000;50.360;7.582;2023-07-24T11:35:53;4.43;;;3.70;;
21677;SDS011;11000;50.360;7.582;2023-07-24T11:38:13;4.17;;;3.53;;
21677;SDS011;11000;50.360;7.582;2023-07-24T11:40:38;5.40;;;3.80;;
21677;SDS011;11000;50.360;7.582;2023-07-24T11:43:03;5.00;;;3.73;;
21677;SDS011;11000;50.360;7.582;2023-07-24T11:45:24;4.00;;;3.37;;
21677;SDS011;11000;50.360;7.582;2023-07-24T11:47:45;6.07;;;3.60;;
21677;SDS011;11000;50.360;7.582;2023-07-24T11:50:07;4.30;;;3.50;;
21677;SDS011;11000;50.360;7.582;2023-07-24T11:52:38;4.57;;;3.77;;
21677;SDS011;11000;50.360;7.582;2023-07-24T11:54:59;4.00;;;3.40;;
21677;SDS011;11000;50.360;7.582;2023-07-24T11:57:23;3.73;;;3.43;;
21677;SDS011;11000;50.360;7.582;2023-07-24T11:59:43;3.53;;;2.87;;
21677;SDS011;11000;50.360;7.582;2023-07-24T12:02:04;4.87;;;3.20;;
21677;SDS011;11000;50.360;7.582;2023-07-24T12:04:25;4.83;;;3.17;;
21677;SDS011;11000;50.360;7.582;2023-07-24T12:06:50;3.50;;;3.20;;
21677;SDS011;11000;50.360;7.582;2023-07-24T12:09:11;4.90;;;3.70;;
21677;SDS011;11000;50.360;7.582;2023-07-24T12:11:32;5.37;;;3.73;;
21677;SDS011;11000;50.360;7.582;2023-07-24T12:13:53;4.20;;;3.50;;
21677;SDS011;11000;50.360;7.582;2023-07-24T12:16:14;7.63;;;4.37;;
21677;SDS011;11000;50.360;7.582;2023-07-24T12:18:34;5.40;;;4.20;;
21677;SDS011;11000;50.360;7.582;2023-07-24T12:20:55;4.43;;;3.37;;
21677;SDS011;11000;50.360;7.582;2023-07-24T12:23:15;3.40;;;3.10;;
21677;SDS011;11000;50.360;7.582;2023-07-24T12:25:37;4.73;;;3.40;;
21677;SDS011;11000;50.360;7.582;2023-07-24T12:27:57;4.00;;;3.20;;
21677;SDS011;11000;50.360;7.582;2023-07-24T12:30:18;3.93;;;3.23;;
21677;SDS011;11000;50.360;7.582;2023-07-24T12:32:39;4.93;;;3.07;;
21677;SDS011;11000;50.360;7.582;2023-07-24T12:34:59;5.97;;;3.97;;
21677;SDS011;11000;50.360;7.582;2023-07-24T12:37:20;6.83;;;4.07;;
21677;SDS011;11000;50.360;7.582;2023-07-24T12:39:40;4.60;;;3.70;;
21677;SDS011;11000;50.360;7.582;2023-07-24T12:42:01;3.73;;;3.20;;
21677;SDS011;11000;50.360;7.582;2023-07-24T12:44:22;6.13;;;3.43;;
21677;SDS011;11000;50.360;7.582;2023-07-24T12:46:42;4.17;;;3.30;;
21677;SDS011;11000;50.360;7.582;2023-07-24T12:49:03;5.57;;;3.27;;
21677;SDS011;11000;50.360;7.582;2023-07-24T12:51:23;4.33;;;3.63;;
21677;SDS011;11000;50.360;7.582;2023-07-24T12:53:44;5.77;;;3.50;;
21677;SDS011;11000;50.360;7.582;2023-07-24T12:56:04;5.03;;;3.27;;
21677;SDS011;11000;50.360;7.582;2023-07-24T12:58:25;3.97;;;2.70;;
21677;SDS011;11000;50.360;7.582;2023-07-24T13:00:45;3.23;;;2.50;;
21677;SDS011;11000;50.360;7.582;2023-07-24T13:03:06;2.60;;;2.23;;
21677;SDS011;11000;50.360;7.582;2023-07-24T13:05:26;3.57;;;2.70;;
21677;SDS011;11000;50.360;7.582;2023-07-24T13:07:47;3.27;;;2.40;;
21677;SDS011;11000;50.360;7.582;2023-07-24T13:10:08;2.93;;;2.63;;
21677;SDS011;11000;50.360;7.582;2023-07-24T13:12:29;2.40;;;2.20;;
21677;SDS011;11000;50.360;7.582;2023-07-24T13:14:49;2.67;;;2.00;;
21677;SDS011;11000;50.360;7.582;2023-07-24T13:17:10;3.33;;;2.67;;
21677;SDS011;11000;50.360;7.582;2023-07-24T13:19:30;2.67;;;2.20;;
21677;SDS011;11000;50.360;7.582;2023-07-24T13:21:51;2.20;;;2.00;;
21677;SDS011;11000;50.360;7.582;2023-07-24T13:24:11;2.30;;;1.97;;
21677;SDS011;11000;50.360;7.582;2023-07-24T13:26:32;2.40;;;2.20;;
21677;SDS011;11000;50.360;7.582;2023-07-24T13:28:53;1.87;;;1.70;;
21677;SDS011;11000;50.360;7.582;2023-07-24T13:31:17;2.63;;;2.43;;
21677;SDS011;11000;50.360;7.582;2023-07-24T13:33:39;2.33;;;2.13;;
21677;SDS011;11000;50.360;7.582;2023-07-24T13:36:00;4.10;;;2.67;;
21677;SDS011;11000;50.360;7.582;2023-07-24T13:38:20;2.30;;;2.10;;
21677;SDS011;11000;50.360;7.582;2023-07-24T13:40:41;2.20;;;1.87;;
21677;SDS011;11000;50.360;7.582;2023-07-24T13:43:01;2.03;;;1.90;;
21677;SDS011;11000;50.360;7.582;2023-07-24T13:45:22;2.03;;;1.87;;
21677;SDS011;11000;50.360;7.582;2023-07-24T13:47:42;2.80;;;2.10;;
21677;SDS011;11000;50.360;7.582;2023-07-24T13:50:03;2.07;;;1.77;;
21677;SDS011;11000;50.360;7.582;2023-07-24T13:52:24;1.87;;;1.63;;
21677;SDS011;11000;50.360;7.582;2023-07-24T13:54:44;1.43;;;1.33;;
21677;SDS011;11000;50.360;7.582;2023-07-24T13:57:05;1.83;;;1.40;;
21677;SDS011;11000;50.360;7.582;2023-07-24T13:59:28;1.43;;;1.33;;
21677;SDS011;11000;50.360;7.582;2023-07-24T14:01:48;3.13;;;1.33;;
21677;SDS011;11000;50.360;7.582;2023-07-24T14:04:09;1.63;;;1.37;;
21677;SDS011;11000;50.360;7.582;2023-07-24T14:06:31;1.73;;;1.30;;
21677;SDS011;11000;50.360;7.582;2023-07-24T14:08:52;2.43;;;1.43;;
21677;SDS011;11000;50.360;7.582;2023-07-24T14:11:12;1.57;;;1.33;;
21677;SDS011;11000;50.360;7.582;2023-07-24T14:13:33;1.70;;;1.33;;
21677;SDS011;11000;50.360;7.582;2023-07-24T14:15:53;1.27;;;1.17;;